Time;durP1;ratioP1;P1;durP2;ratioP2;P2;SDS_P1;SDS_P2;PMS_P1;PMS_P2;Temp;Humidity;BMP_temperature;BMP_pressure;BME280_temperature;BME280_humidity;BME280_pressure;Samples;Min_cycle;Max_cycle;Signal;HPM_P1;HPM_P2
2021/06/26 00:00:09;;;;;;;27.10;11.82;;;17.40;92.50;;;;;;4915932;29;20104;-85
2021/06/26 00:02:35;;;;;;;37.58;13.95;;;17.30;92.50;;;;;;4912243;29;20035;-85
2021/06/26 00:05:00;;;;;;;32.08;12.73;;;17.30;92.50;;;;;;4934696;29;20389;-85
2021/06/26 00:07:26;;;;;;;29.38;13.00;;;17.30;92.60;;;;;;4900392;29;20422;-85
2021/06/26 00:09:51;;;;;;;33.53;13.48;;;17.20;92.60;;;;;;4916008;29;20040;-85
2021/06/26 00:12:17;;;;;;;33.72;12.43;;;17.20;92.60;;;;;;4915957;29;20060;-85
2021/06/26 00:14:45;;;;;;;29.05;12.82;;;17.10;92.60;;;;;;4916061;29;20033;-86
2021/06/26 00:17:11;;;;;;;31.65;13.00;;;17.10;92.60;;;;;;4887956;29;20031;-86
2021/06/26 00:19:36;;;;;;;38.08;13.90;;;17.00;92.60;;;;;;4916106;29;20068;-85
2021/06/26 00:22:02;;;;;;;32.72;13.90;;;17.00;92.50;;;;;;4914369;29;20052;-85
2021/06/26 00:24:28;;;;;;;29.08;12.68;;;16.90;92.50;;;;;;4915848;29;20476;-85
2021/06/26 00:26:53;;;;;;;33.95;13.90;;;16.90;92.60;;;;;;4915650;29;20032;-84
2021/06/26 00:29:19;;;;;;;34.55;14.23;;;16.80;92.50;;;;;;4915945;29;20033;-84
2021/06/26 00:31:45;;;;;;;30.98;13.13;;;16.80;92.50;;;;;;4915925;29;20021;-84
2021/06/26 00:34:10;;;;;;;32.38;12.95;;;16.70;92.50;;;;;;4915721;29;20436;-84
2021/06/26 00:36:36;;;;;;;27.15;11.98;;;16.70;92.50;;;;;;4915556;29;20028;-84
2021/06/26 00:39:02;;;;;;;30.02;12.02;;;16.70;92.50;;;;;;4902697;29;20381;-84
2021/06/26 00:41:28;;;;;;;30.25;13.02;;;16.60;92.50;;;;;;4899343;29;20377;-84
2021/06/26 00:43:53;;;;;;;37.00;12.82;;;16.60;92.50;;;;;;4916208;29;20032;-86
2021/06/26 00:46:19;;;;;;;30.60;12.55;;;16.50;92.60;;;;;;4919868;29;20031;-86
2021/06/26 00:48:44;;;;;;;28.70;13.10;;;16.50;92.60;;;;;;4922104;29;20576;-86
2021/06/26 00:51:10;;;;;;;31.92;13.00;;;16.50;92.60;;;;;;4915625;29;20031;-86
2021/06/26 00:53:36;;;;;;;35.75;13.57;;;16.50;92.60;;;;;;4903628;29;20041;-86
2021/06/26 00:56:03;;;;;;;34.95;13.63;;;16.40;92.60;;;;;;4915261;29;20024;-86
2021/06/26 00:58:29;;;;;;;37.65;15.35;;;16.40;92.70;;;;;;4899849;29;20035;-86
2021/06/26 01:00:54;;;;;;;43.28;16.20;;;16.50;92.80;;;;;;4897502;29;20033;-86
2021/06/26 01:03:21;;;;;;;48.33;15.80;;;16.50;92.80;;;;;;4903293;29;20027;-86
2021/06/26 01:05:47;;;;;;;44.75;16.33;;;16.50;92.90;;;;;;4921095;29;20087;-87
2021/06/26 01:08:13;;;;;;;43.67;15.93;;;16.50;93.00;;;;;;4888251;29;20043;-86
2021/06/26 01:10:39;;;;;;;42.13;15.45;;;16.50;93.00;;;;;;4922559;29;20021;-86
2021/06/26 01:13:06;;;;;;;50.83;17.58;;;16.60;93.10;;;;;;4902082;29;20035;-86
2021/06/26 01:15:32;;;;;;;52.38;18.38;;;16.70;93.10;;;;;;4919142;29;20520;-86
2021/06/26 01:17:58;;;;;;;52.17;18.48;;;16.60;93.00;;;;;;4902559;29;20037;-86
2021/06/26 01:20:25;;;;;;;46.28;15.68;;;16.70;93.10;;;;;;4903347;29;20499;-86
2021/06/26 01:22:55;;;;;;;42.05;15.07;;;16.70;93.10;;;;;;4902120;29;20027;-86
2021/06/26 01:25:22;;;;;;;46.22;16.92;;;16.70;93.10;;;;;;4918700;29;20028;-86
2021/06/26 01:27:49;;;;;;;45.20;16.08;;;16.70;93.00;;;;;;4918435;29;20024;-86
2021/06/26 01:30:22;;;;;;;54.65;17.02;;;16.70;93.00;;;;;;4919051;29;20033;-86
2021/06/26 01:32:48;;;;;;;47.58;15.88;;;16.70;93.00;;;;;;4918254;29;20087;-86
2021/06/26 01:35:14;;;;;;;45.70;15.65;;;16.70;92.90;;;;;;4918777;29;20472;-86
2021/06/26 01:37:40;;;;;;;58.03;18.08;;;16.70;92.90;;;;;;4918298;29;20111;-86
2021/06/26 01:40:07;;;;;;;51.90;17.25;;;16.70;92.90;;;;;;4901399;29;20079;-86
2021/06/26 01:42:33;;;;;;;51.65;17.30;;;16.60;92.90;;;;;;4918468;29;20036;-86
2021/06/26 01:44:58;;;;;;;48.95;16.40;;;16.70;92.90;;;;;;4918196;29;20381;-85
2021/06/26 01:47:24;;;;;;;42.75;14.82;;;16.70;92.90;;;;;;4900592;29;20114;-85
2021/06/26 01:49:49;;;;;;;45.95;15.40;;;16.60;93.00;;;;;;4932697;29;20040;-85
2021/06/26 01:52:15;;;;;;;35.92;14.15;;;16.60;93.00;;;;;;4918262;29;20067;-85
2021/06/26 01:54:41;;;;;;;42.60;15.07;;;16.60;92.90;;;;;;4902472;29;20040;-85
2021/06/26 01:57:08;;;;;;;40.72;15.38;;;16.60;93.20;;;;;;4907289;29;20036;-84
2021/06/26 01:59:34;;;;;;;43.20;16.55;;;16.70;92.90;;;;;;4901527;29;20043;-84
2021/06/26 02:02:00;;;;;;;44.20;14.13;;;16.60;92.90;;;;;;4918216;29;20021;-85
2021/06/26 02:04:26;;;;;;;46.30;15.10;;;16.60;92.90;;;;;;4922557;29;20029;-85
2021/06/26 02:06:51;;;;;;;50.58;15.60;;;16.60;92.90;;;;;;4918910;29;20465;-84
2021/06/26 02:09:17;;;;;;;53.42;17.10;;;16.60;92.90;;;;;;4917864;29;20072;-87
2021/06/26 02:11:42;;;;;;;59.92;17.83;;;16.60;92.90;;;;;;4901170;29;20032;-87
2021/06/26 02:14:08;;;;;;;71.60;21.90;;;16.60;93.00;;;;;;4917853;29;20389;-85
2021/06/26 02:16:34;;;;;;;72.47;19.08;;;16.60;92.90;;;;;;4917456;29;20027;-85
2021/06/26 02:18:59;;;;;;;61.67;18.98;;;16.60;93.00;;;;;;4917893;29;20477;-85
2021/06/26 02:21:25;;;;;;;72.22;19.30;;;16.60;93.00;;;;;;4917770;29;20020;-85
2021/06/26 02:23:51;;;;;;;67.45;19.30;;;16.60;93.00;;;;;;4917654;29;20033;-85
2021/06/26 02:26:16;;;;;;;69.40;19.40;;;16.50;92.90;;;;;;4917587;29;20035;-86
2021/06/26 02:28:42;;;;;;;77.80;20.45;;;16.60;93.00;;;;;;4917252;29;20119;-86
2021/06/26 02:31:08;;;;;;;92.03;22.45;;;16.60;92.90;;;;;;4901941;29;20028;-86
2021/06/26 02:33:33;;;;;;;88.30;21.08;;;16.50;92.90;;;;;;4903653;29;20031;-86
2021/06/26 02:35:59;;;;;;;71.30;19.92;;;16.50;93.00;;;;;;4901789;29;20068;-86
2021/06/26 02:38:25;;;;;;;63.85;19.33;;;16.50;93.00;;;;;;4917497;29;20032;-86
2021/06/26 02:40:50;;;;;;;63.95;19.27;;;16.50;93.00;;;;;;4901767;29;20111;-86
2021/06/26 02:43:16;;;;;;;60.15;19.70;;;16.60;93.00;;;;;;4916857;29;20024;-86
2021/06/26 02:45:41;;;;;;;56.20;17.75;;;16.60;93.00;;;;;;4917043;29;20519;-86
2021/06/26 02:48:07;;;;;;;58.00;17.15;;;16.60;93.00;;;;;;4917520;29;20544;-86
2021/06/26 02:50:33;;;;;;;56.25;16.80;;;16.60;92.90;;;;;;4900139;29;20034;-86
2021/06/26 02:52:58;;;;;;;43.30;14.57;;;16.50;92.80;;;;;;4917088;29;20040;-86
2021/06/26 02:55:24;;;;;;;48.88;15.82;;;16.40;92.70;;;;;;4891921;29;20076;-86
2021/06/26 02:57:49;;;;;;;47.50;14.70;;;16.40;92.90;;;;;;4916979;29;20024;-87
2021/06/26 03:00:15;;;;;;;53.10;15.10;;;16.30;92.70;;;;;;4901462;29;20028;-86
2021/06/26 03:02:41;;;;;;;51.50;16.73;;;16.30;92.70;;;;;;4896718;29;20057;-86
2021/06/26 03:05:07;;;;;;;45.13;14.35;;;16.30;92.70;;;;;;4899537;29;20543;-87
2021/06/26 03:07:33;;;;;;;49.58;15.57;;;16.20;92.70;;;;;;4915434;29;20040;-86
2021/06/26 03:09:58;;;;;;;49.28;15.68;;;16.20;92.80;;;;;;4885450;29;20059;-87
2021/06/26 03:12:24;;;;;;;53.33;15.80;;;16.20;92.70;;;;;;4901195;29;20111;-87
2021/06/26 03:14:50;;;;;;;46.65;17.50;;;16.20;92.80;;;;;;4885923;29;20099;-86
2021/06/26 03:17:15;;;;;;;61.35;18.63;;;16.20;92.80;;;;;;4916732;29;20065;-87
2021/06/26 03:19:41;;;;;;;61.88;18.60;;;16.20;92.80;;;;;;4916684;29;20043;-87
2021/06/26 03:22:07;;;;;;;53.15;17.58;;;16.10;92.70;;;;;;4916367;29;20056;-87
2021/06/26 03:24:32;;;;;;;47.70;17.30;;;16.10;92.80;;;;;;4899859;29;20123;-87
2021/06/26 03:26:58;;;;;;;45.20;15.85;;;16.00;92.70;;;;;;4921935;29;20020;-87
2021/06/26 03:29:24;;;;;;;46.35;15.40;;;16.00;92.60;;;;;;4902654;29;20040;-87
2021/06/26 03:31:50;;;;;;;46.17;15.55;;;16.00;92.60;;;;;;4916770;29;20072;-87
2021/06/26 03:34:16;;;;;;;43.55;15.75;;;15.90;92.60;;;;;;4900203;29;20028;-87
2021/06/26 03:36:42;;;;;;;55.70;17.13;;;15.90;92.70;;;;;;4916386;29;20047;-86
2021/06/26 03:39:07;;;;;;;71.40;21.58;;;15.90;92.70;;;;;;4916386;29;20548;-85
2021/06/26 03:41:33;;;;;;;84.38;22.30;;;15.90;92.80;;;;;;4916290;29;20020;-85
2021/06/26 03:44:00;;;;;;;75.07;21.45;;;15.90;92.80;;;;;;4916339;29;20031;-85
2021/06/26 03:46:26;;;;;;;67.97;20.38;;;15.90;92.80;;;;;;4885593;29;20021;-85
2021/06/26 03:48:53;;;;;;;60.80;19.35;;;15.90;92.80;;;;;;4916332;29;20142;-85
2021/06/26 03:51:20;;;;;;;59.53;18.77;;;15.80;92.80;;;;;;4916142;29;20119;-86
2021/06/26 03:53:46;;;;;;;60.22;18.23;;;15.90;92.80;;;;;;4916249;29;20040;-86
2021/06/26 03:56:13;;;;;;;52.05;17.25;;;15.90;92.70;;;;;;4916401;29;20024;-86
2021/06/26 03:58:38;;;;;;;46.35;15.73;;;15.80;92.70;;;;;;4916069;29;20036;-86
2021/06/26 04:01:04;;;;;;;55.92;15.65;;;15.80;92.70;;;;;;4899296;29;20027;-86
2021/06/26 04:03:33;;;;;;;53.08;15.73;;;15.80;92.70;;;;;;4917159;29;20039;-86
2021/06/26 04:05:58;;;;;;;49.03;15.32;;;15.80;92.70;;;;;;4916846;29;20087;-87
2021/06/26 04:08:24;;;;;;;44.88;14.63;;;15.80;92.80;;;;;;4915790;29;20429;-86
2021/06/26 04:10:49;;;;;;;42.10;14.40;;;15.80;92.80;;;;;;4916140;29;20036;-86
2021/06/26 04:13:16;;;;;;;38.30;13.82;;;15.80;92.80;;;;;;4916174;29;20485;-86
2021/06/26 04:15:42;;;;;;;40.10;13.57;;;15.80;92.80;;;;;;4916155;29;20384;-86
2021/06/26 04:18:09;;;;;;;48.25;15.13;;;15.80;92.80;;;;;;4916100;29;20027;-87
2021/06/26 04:20:34;;;;;;;38.45;14.25;;;15.80;92.80;;;;;;4902503;29;20020;-87
2021/06/26 04:23:00;;;;;;;42.67;15.52;;;15.80;92.90;;;;;;4916445;29;20107;-87
2021/06/26 04:25:27;;;;;;;50.25;17.45;;;15.80;92.90;;;;;;4899539;29;20028;-87
2021/06/26 04:27:53;;;;;;;62.10;17.23;;;15.90;92.90;;;;;;4899191;29;20043;-87
2021/06/26 04:30:19;;;;;;;47.20;16.42;;;15.90;92.90;;;;;;4900188;29;20358;-87
2021/06/26 04:32:45;;;;;;;43.58;15.30;;;15.80;92.90;;;;;;4884546;29;20043;-88
2021/06/26 04:35:13;;;;;;;46.40;16.48;;;15.90;92.90;;;;;;4900435;29;20035;-87
2021/06/26 04:37:39;;;;;;;50.33;17.92;;;15.90;92.90;;;;;;4919929;29;20016;-88
2021/06/26 04:40:05;;;;;;;61.95;19.35;;;15.90;92.90;;;;;;4887962;29;20071;-87
2021/06/26 04:42:31;;;;;;;51.25;17.27;;;15.90;93.00;;;;;;4908838;29;20028;-87
2021/06/26 04:44:59;;;;;;;49.83;18.23;;;16.00;93.00;;;;;;4923390;29;20032;-86
2021/06/26 04:47:25;;;;;;;56.58;16.42;;;16.00;93.00;;;;;;4919325;29;20043;-85
2021/06/26 04:49:51;;;;;;;60.63;18.63;;;16.10;93.00;;;;;;4919466;29;20040;-85
2021/06/26 04:52:17;;;;;;;59.28;17.73;;;16.10;93.10;;;;;;4919426;29;20055;-82
2021/06/26 04:54:42;;;;;;;66.25;19.30;;;16.20;93.10;;;;;;4919973;29;20042;-82
2021/06/26 04:57:08;;;;;;;74.63;19.08;;;16.20;93.20;;;;;;4919360;29;20178;-83
2021/06/26 04:59:33;;;;;;;75.07;19.73;;;16.30;93.40;;;;;;4920142;29;20028;-83
2021/06/26 05:01:59;;;;;;;76.95;21.15;;;16.40;93.30;;;;;;4919467;29;20037;-83
2021/06/26 05:04:25;;;;;;;72.82;20.75;;;16.50;93.40;;;;;;4923960;29;20028;-83
2021/06/26 05:06:50;;;;;;;66.78;19.48;;;16.60;93.30;;;;;;4920791;29;20051;-84
2021/06/26 05:09:16;;;;;;;68.45;19.50;;;16.60;93.40;;;;;;4899431;29;20095;-84
2021/06/26 05:11:42;;;;;;;58.15;17.63;;;16.70;93.40;;;;;;4919700;29;20028;-83
2021/06/26 05:14:09;;;;;;;66.03;18.08;;;16.70;93.30;;;;;;4920412;29;20046;-82
2021/06/26 05:16:35;;;;;;;67.75;18.85;;;16.90;93.40;;;;;;4923612;29;20020;-85
2021/06/26 05:19:00;;;;;;;71.45;18.95;;;17.00;93.50;;;;;;4904035;29;20500;-83
2021/06/26 05:21:26;;;;;;;59.92;16.95;;;17.10;93.50;;;;;;4918752;29;20032;-83
2021/06/26 05:23:52;;;;;;;47.38;14.98;;;17.20;93.40;;;;;;4919412;29;20024;-82
2021/06/26 05:26:18;;;;;;;52.45;15.88;;;17.20;93.20;;;;;;4925143;29;20020;-82
2021/06/26 05:28:43;;;;;;;57.80;17.60;;;17.20;93.30;;;;;;4920938;29;20501;-82
2021/06/26 05:31:09;;;;;;;56.92;17.75;;;17.30;93.30;;;;;;4917900;29;20043;-82
2021/06/26 05:33:35;;;;;;;52.88;17.35;;;17.40;93.10;;;;;;4915478;29;20052;-82
2021/06/26 05:36:01;;;;;;;60.03;18.98;;;17.40;93.20;;;;;;4917117;29;20393;-82
2021/06/26 05:38:26;;;;;;;76.05;20.08;;;17.50;93.20;;;;;;4918430;29;20120;-82
2021/06/26 05:40:52;;;;;;;73.50;19.80;;;17.50;93.10;;;;;;4902669;29;20031;-82
2021/06/26 05:43:18;;;;;;;89.10;22.35;;;17.50;93.20;;;;;;4918479;29;20063;-81
2021/06/26 05:45:43;;;;;;;94.72;25.25;;;17.60;93.50;;;;;;4918024;29;20039;-84
2021/06/26 05:48:09;;;;;;;89.68;22.30;;;17.70;93.40;;;;;;4918005;29;20044;-85
2021/06/26 05:50:35;;;;;;;69.22;20.77;;;17.80;93.50;;;;;;4901593;29;20031;-83
2021/06/26 05:53:01;;;;;;;70.15;20.67;;;17.90;93.60;;;;;;4902382;29;20036;-83
2021/06/26 05:55:28;;;;;;;66.60;20.77;;;18.10;93.60;;;;;;4900155;29;20107;-82
2021/06/26 05:57:54;;;;;;;76.07;21.30;;;18.20;93.70;;;;;;4900117;29;20166;-82
2021/06/26 06:00:22;;;;;;;71.95;22.02;;;18.40;93.80;;;;;;4900257;29;20040;-82
2021/06/26 06:02:48;;;;;;;71.28;24.23;;;18.50;93.90;;;;;;4900194;29;20157;-83
2021/06/26 06:05:14;;;;;;;58.00;22.35;;;18.70;93.70;;;;;;4911257;29;20036;-82
2021/06/26 06:07:41;;;;;;;53.47;23.55;;;18.80;93.70;;;;;;4901130;29;20036;-81
2021/06/26 06:10:08;;;;;;;47.50;20.13;;;19.00;93.70;;;;;;4899974;29;20495;-81
2021/06/26 06:12:35;;;;;;;43.15;21.02;;;19.00;93.50;;;;;;4898975;29;20023;-81
2021/06/26 06:15:03;;;;;;;52.00;26.75;;;19.10;93.50;;;;;;4899902;29;20025;-82
2021/06/26 06:17:29;;;;;;;41.42;19.77;;;19.10;93.40;;;;;;4899725;29;20055;-81
2021/06/26 06:19:54;;;;;;;47.95;21.38;;;19.20;93.30;;;;;;4899466;29;20056;-81
2021/06/26 06:22:20;;;;;;;45.97;19.88;;;19.20;93.30;;;;;;4883975;29;20092;-81
2021/06/26 06:24:46;;;;;;;35.70;19.23;;;19.40;93.50;;;;;;4896722;29;20473;-83
2021/06/26 06:27:11;;;;;;;41.67;20.50;;;19.50;93.50;;;;;;4899725;29;20036;-82
2021/06/26 06:29:37;;;;;;;45.63;22.15;;;19.50;93.30;;;;;;4893531;29;20127;-84
2021/06/26 06:32:03;;;;;;;45.35;23.80;;;19.50;93.20;;;;;;4896807;29;20470;-82
2021/06/26 06:34:29;;;;;;;35.72;19.88;;;19.60;93.40;;;;;;4881361;29;20037;-83
2021/06/26 06:36:54;;;;;;;37.42;21.23;;;19.70;93.40;;;;;;4894707;29;20436;-82
2021/06/26 06:39:20;;;;;;;39.67;21.77;;;19.80;93.30;;;;;;4892156;29;20407;-82
2021/06/26 06:41:46;;;;;;;36.90;20.30;;;19.80;92.90;;;;;;4895856;29;20037;-82
2021/06/26 06:44:12;;;;;;;40.45;23.73;;;19.90;93.30;;;;;;4899237;29;20944;-82
2021/06/26 06:46:38;;;;;;;36.03;21.85;;;19.80;93.10;;;;;;4899519;29;20486;-82
2021/06/26 06:49:03;;;;;;;35.60;21.42;;;19.90;93.50;;;;;;4880111;29;20103;-82
2021/06/26 06:51:29;;;;;;;38.25;20.58;;;20.10;93.50;;;;;;4904414;29;20043;-84
2021/06/26 06:53:55;;;;;;;34.47;21.25;;;20.10;93.40;;;;;;4917618;29;20034;-82
2021/06/26 06:56:21;;;;;;;30.75;19.10;;;20.20;93.20;;;;;;4919338;29;20027;-82
2021/06/26 06:58:47;;;;;;;34.00;19.77;;;20.20;93.00;;;;;;4916418;29;20039;-82
2021/06/26 07:01:13;;;;;;;29.95;20.15;;;20.20;92.80;;;;;;4916919;29;20447;-83
2021/06/26 07:03:38;;;;;;;30.48;19.60;;;20.20;93.00;;;;;;4919990;29;20027;-82
2021/06/26 07:06:04;;;;;;;31.63;20.40;;;20.30;93.40;;;;;;4917232;29;20028;-81
2021/06/26 07:08:30;;;;;;;30.45;20.63;;;20.30;93.20;;;;;;4916512;29;20123;-82
2021/06/26 07:10:56;;;;;;;30.08;20.00;;;20.50;93.40;;;;;;4916971;29;20135;-82
2021/06/26 07:13:21;;;;;;;30.27;19.40;;;20.60;93.40;;;;;;4917023;29;20024;-82
2021/06/26 07:15:47;;;;;;;27.55;18.58;;;20.80;93.60;;;;;;4900397;29;20044;-82
2021/06/26 07:18:13;;;;;;;28.60;19.42;;;21.00;93.30;;;;;;4917082;29;20107;-83
2021/06/26 07:20:41;;;;;;;28.85;19.45;;;21.10;93.20;;;;;;4916879;29;20376;-82
2021/06/26 07:23:07;;;;;;;27.65;17.73;;;21.10;93.10;;;;;;4916631;29;20075;-83
2021/06/26 07:25:33;;;;;;;29.40;19.55;;;21.20;93.00;;;;;;4916761;29;20056;-82
2021/06/26 07:27:59;;;;;;;28.40;18.13;;;21.10;92.40;;;;;;4916781;29;20028;-82
2021/06/26 07:30:24;;;;;;;27.33;18.95;;;21.10;93.00;;;;;;4916886;29;20032;-82
2021/06/26 07:32:50;;;;;;;28.63;20.85;;;21.20;93.30;;;;;;4916335;29;20056;-82
2021/06/26 07:35:16;;;;;;;27.00;18.73;;;21.50;94.00;;;;;;4916787;29;20020;-83
2021/06/26 07:37:43;;;;;;;27.40;18.95;;;21.70;93.70;;;;;;4915878;29;20032;-82
2021/06/26 07:40:10;;;;;;;24.38;17.80;;;21.90;93.20;;;;;;4916350;29;20384;-84
2021/06/26 07:42:36;;;;;;;30.17;19.00;;;21.90;92.90;;;;;;4915955;29;20016;-84
2021/06/26 07:45:02;;;;;;;27.00;17.92;;;21.90;92.60;;;;;;4925602;29;20039;-83
2021/06/26 07:47:28;;;;;;;28.90;18.38;;;21.90;92.70;;;;;;4915947;29;20025;-82
2021/06/26 07:49:54;;;;;;;26.23;18.13;;;21.80;92.60;;;;;;4916105;29;20044;-83
2021/06/26 07:52:19;;;;;;;26.90;17.90;;;21.90;93.00;;;;;;4919347;29;20059;-83
2021/06/26 07:54:45;;;;;;;25.42;17.92;;;22.10;93.50;;;;;;4916461;29;20032;-83
2021/06/26 07:57:11;;;;;;;31.00;19.30;;;22.20;92.90;;;;;;4900238;29;20404;-83
2021/06/26 07:59:36;;;;;;;26.25;18.02;;;22.20;92.70;;;;;;4901763;29;20503;-85
2021/06/26 08:02:02;;;;;;;25.45;17.08;;;22.30;92.90;;;;;;4884676;29;20036;-83
2021/06/26 08:04:28;;;;;;;27.30;17.85;;;22.40;92.60;;;;;;4901218;29;20028;-83
2021/06/26 08:06:53;;;;;;;24.85;17.65;;;22.30;92.50;;;;;;4920707;29;20032;-83
2021/06/26 08:09:19;;;;;;;25.20;17.77;;;22.40;92.80;;;;;;4915758;29;20075;-83
2021/06/26 08:11:45;;;;;;;25.95;18.90;;;22.60;93.10;;;;;;4915622;29;20079;-83
2021/06/26 08:14:10;;;;;;;26.27;19.45;;;22.80;93.20;;;;;;4911791;29;20040;-83
2021/06/26 08:16:36;;;;;;;23.80;17.58;;;22.90;93.10;;;;;;4915968;29;20021;-83
2021/06/26 08:19:01;;;;;;;26.25;18.77;;;23.10;93.20;;;;;;4904821;29;20046;-83
2021/06/26 08:21:27;;;;;;;23.90;16.95;;;23.20;92.90;;;;;;4915867;29;20055;-84
2021/06/26 08:23:53;;;;;;;24.48;16.63;;;23.30;92.60;;;;;;4915563;29;20035;-83
2021/06/26 08:26:19;;;;;;;23.98;16.02;;;23.30;92.80;;;;;;4913637;29;20080;-82
2021/06/26 08:28:45;;;;;;;22.60;15.73;;;23.60;93.10;;;;;;4920337;29;20040;-82
2021/06/26 08:31:10;;;;;;;24.75;17.23;;;23.60;92.60;;;;;;4919530;29;20020;-82
2021/06/26 08:33:36;;;;;;;25.27;16.08;;;23.60;92.40;;;;;;4915939;29;20111;-82
2021/06/26 08:36:03;;;;;;;21.50;15.88;;;23.70;92.50;;;;;;4915985;29;20020;-82
2021/06/26 08:38:29;;;;;;;23.95;16.20;;;23.70;92.30;;;;;;4916018;29;20020;-83
2021/06/26 08:40:55;;;;;;;21.02;15.02;;;23.60;92.00;;;;;;4915808;29;20086;-83
2021/06/26 08:43:22;;;;;;;23.90;16.98;;;23.60;92.30;;;;;;4901668;29;20065;-83
2021/06/26 08:45:49;;;;;;;26.27;17.73;;;23.60;92.20;;;;;;4920746;29;20032;-83
2021/06/26 08:48:14;;;;;;;24.13;17.23;;;23.60;92.30;;;;;;4917116;29;20036;-83
2021/06/26 08:50:40;;;;;;;23.83;17.45;;;23.70;92.40;;;;;;4899477;29;20028;-83
2021/06/26 08:53:06;;;;;;;22.67;16.23;;;23.90;92.60;;;;;;4917749;29;20051;-83
2021/06/26 08:55:32;;;;;;;23.83;17.05;;;24.00;92.50;;;;;;4915778;29;20024;-83
2021/06/26 08:58:02;;;;;;;23.80;16.98;;;23.90;91.80;;;;;;4915809;29;20025;-83
2021/06/26 09:00:28;;;;;;;20.80;15.25;;;23.80;91.60;;;;;;4911776;29;20024;-83
2021/06/26 09:03:12;;;;;;;25.67;17.05;;;23.70;91.50;;;;;;4915615;29;20051;-84
2021/06/26 09:05:39;;;;;;;23.05;15.82;;;23.60;91.50;;;;;;4915033;29;20079;-83
2021/06/26 09:08:09;;;;;;;22.20;15.73;;;23.50;91.30;;;;;;4915319;29;20022;-83
2021/06/26 09:10:35;;;;;;;23.35;17.23;;;23.30;91.30;;;;;;4915327;29;20024;-83
2021/06/26 09:13:10;;;;;;;21.58;16.10;;;23.20;91.40;;;;;;4921547;29;20052;-86
2021/06/26 09:15:36;;;;;;;21.08;15.88;;;23.10;91.60;;;;;;4926051;29;20499;-83
2021/06/26 09:18:11;;;;;;;22.33;15.48;;;23.10;91.70;;;;;;4919664;29;20028;-82
2021/06/26 09:20:39;;;;;;;21.65;14.65;;;23.00;91.60;;;;;;4916266;29;20118;-83
2021/06/26 09:23:32;;;;;;;24.42;15.85;;;22.90;91.80;;;;;;4919278;29;20032;-82
2021/06/26 09:26:05;;;;;;;18.98;13.85;;;22.90;91.60;;;;;;4919068;29;20500;-82
2021/06/26 09:28:31;;;;;;;22.60;15.77;;;22.90;92.00;;;;;;4918603;29;20088;-82
2021/06/26 09:30:56;;;;;;;20.15;14.50;;;22.90;92.10;;;;;;4919165;29;20032;-82
2021/06/26 09:33:26;;;;;;;21.25;13.85;;;22.90;92.40;;;;;;4918686;29;20426;-82
2021/06/26 09:36:03;;;;;;;21.88;14.40;;;23.00;92.40;;;;;;4917942;29;20024;-82
2021/06/26 09:38:33;;;;;;;20.77;14.65;;;23.10;92.40;;;;;;4918694;29;20095;-82
2021/06/26 09:41:12;;;;;;;20.13;14.02;;;23.20;92.30;;;;;;4918868;29;20028;-83
2021/06/26 09:43:38;;;;;;;19.45;13.73;;;23.20;92.30;;;;;;4918679;29;20370;-82
2021/06/26 09:46:16;;;;;;;18.77;12.73;;;23.10;92.10;;;;;;4918863;29;20122;-82
2021/06/26 09:49:03;;;;;;;19.02;12.77;;;23.20;92.30;;;;;;4901331;29;20043;-82
2021/06/26 09:51:31;;;;;;;17.55;11.38;;;23.30;92.40;;;;;;4914355;29;20366;-82
2021/06/26 09:54:01;;;;;;;18.75;11.75;;;23.30;92.40;;;;;;4915943;29;20017;-83
2021/06/26 09:56:47;;;;;;;13.80;9.73;;;23.40;92.50;;;;;;4918185;29;20024;-82
2021/06/26 09:59:14;;;;;;;15.35;10.25;;;23.50;92.50;;;;;;4918226;29;20025;-82
2021/06/26 10:01:42;;;;;;;15.10;10.05;;;23.50;92.50;;;;;;4917614;29;20119;-83
2021/06/26 10:04:13;;;;;;;14.50;9.13;;;23.60;92.50;;;;;;4921632;29;20385;-83
2021/06/26 10:06:39;;;;;;;16.05;11.65;;;23.70;92.80;;;;;;4926614;29;20139;-83
2021/06/26 10:09:05;;;;;;;16.13;9.73;;;23.80;92.70;;;;;;4917489;29;20086;-83
2021/06/26 10:11:35;;;;;;;11.45;7.68;;;24.00;92.60;;;;;;4901166;29;20507;-83
2021/06/26 10:14:04;;;;;;;9.93;5.70;;;24.20;92.60;;;;;;4918177;29;20032;-84
2021/06/26 10:16:30;;;;;;;10.13;5.32;;;24.20;92.50;;;;;;4917676;29;20020;-84
2021/06/26 10:19:00;;;;;;;12.35;6.85;;;24.40;92.50;;;;;;4918177;29;20028;-84
2021/06/26 10:21:28;;;;;;;10.80;6.72;;;24.40;92.40;;;;;;4917561;29;20046;-84
2021/06/26 10:23:56;;;;;;;10.93;6.45;;;24.50;92.50;;;;;;4919578;29;20040;-83
2021/06/26 10:26:25;;;;;;;10.63;6.13;;;24.60;92.10;;;;;;4922067;29;20024;-84
2021/06/26 10:28:59;;;;;;;10.30;5.63;;;24.70;92.20;;;;;;4917457;29;20039;-83
2021/06/26 10:31:39;;;;;;;10.15;6.05;;;24.70;92.40;;;;;;4917608;29;20024;-83
2021/06/26 10:34:16;;;;;;;9.75;5.22;;;24.80;92.30;;;;;;4916188;29;20028;-83
2021/06/26 10:36:50;;;;;;;10.20;5.22;;;24.80;92.10;;;;;;4921599;29;20407;-83
2021/06/26 10:39:34;;;;;;;11.48;5.20;;;25.00;92.50;;;;;;4917615;29;20028;-83
2021/06/26 10:42:09;;;;;;;9.07;5.20;;;25.20;92.50;;;;;;4917274;29;20103;-86
2021/06/26 10:44:41;;;;;;;9.40;4.70;;;25.30;92.20;;;;;;4917866;29;20099;-82
2021/06/26 10:47:09;;;;;;;8.38;4.90;;;25.40;92.20;;;;;;4917815;29;20128;-82
2021/06/26 10:49:35;;;;;;;9.00;4.97;;;25.50;92.20;;;;;;4917657;29;20386;-82
2021/06/26 10:52:08;;;;;;;10.13;4.93;;;25.60;92.10;;;;;;4917504;29;20044;-82
2021/06/26 10:54:35;;;;;;;8.73;4.57;;;25.70;92.20;;;;;;4917676;29;20024;-82
2021/06/26 10:57:06;;;;;;;8.35;4.25;;;25.90;92.40;;;;;;4917279;29;20036;-82
2021/06/26 10:59:32;;;;;;;9.85;5.03;;;26.00;92.00;;;;;;4917041;29;20028;-82
2021/06/26 11:01:59;;;;;;;8.43;4.32;;;26.10;92.00;;;;;;4917171;29;20492;-82
2021/06/26 11:04:25;;;;;;;8.63;4.50;;;26.30;92.20;;;;;;4917221;29;20024;-80
2021/06/26 11:07:03;;;;;;;7.40;4.22;;;26.50;92.30;;;;;;4917630;29;20031;-80
2021/06/26 11:09:40;;;;;;;8.13;4.10;;;26.60;92.10;;;;;;4915594;29;20115;-80
2021/06/26 11:12:10;;;;;;;8.25;4.30;;;26.80;91.90;;;;;;4916863;29;20028;-80
2021/06/26 11:14:36;;;;;;;8.55;4.13;;;27.10;92.50;;;;;;4917017;29;20068;-81
2021/06/26 11:17:03;;;;;;;8.05;4.20;;;27.40;92.90;;;;;;4916953;29;20032;-81
2021/06/26 11:19:33;;;;;;;8.40;4.32;;;27.80;93.40;;;;;;4900156;29;20385;-83
2021/06/26 11:22:00;;;;;;;7.65;3.97;;;28.50;93.90;;;;;;4917804;29;20058;-83
2021/06/26 11:24:40;;;;;;;7.30;3.75;;;29.10;94.00;;;;;;4931177;29;20020;-83
2021/06/26 11:27:08;;;;;;;8.88;4.30;;;29.80;93.70;;;;;;4917372;29;20024;-83
2021/06/26 11:29:39;;;;;;;8.98;4.40;;;30.60;94.00;;;;;;4917184;29;20044;-83
2021/06/26 11:32:18;;;;;;;8.20;4.43;;;31.30;93.40;;;;;;4918103;29;20358;-85
2021/06/26 11:35:10;;;;;;;6.90;3.80;;;32.20;94.30;;;;;;4925397;29;20028;-84
2021/06/26 11:37:44;;;;;;;7.35;4.05;;;33.60;94.40;;;;;;4927867;29;20034;-85
2021/06/26 11:40:13;;;;;;;7.40;3.88;;;34.30;93.00;;;;;;4905983;29;20035;-85
2021/06/26 11:43:11;;;;;;;7.25;3.88;;;34.90;92.40;;;;;;4923514;29;20088;-85
2021/06/26 11:45:40;;;;;;;7.18;3.80;;;35.30;90.00;;;;;;4903095;29;20048;-85
2021/06/26 11:48:07;;;;;;;7.75;3.97;;;34.90;89.30;;;;;;4923972;29;20047;-85
2021/06/26 11:50:35;;;;;;;7.72;3.60;;;35.40;91.50;;;;;;4922949;29;20059;-85
2021/06/26 11:53:09;;;;;;;6.78;3.72;;;36.30;91.60;;;;;;4923443;29;20044;-85
2021/06/26 11:55:55;;;;;;;6.63;3.53;;;36.40;87.30;;;;;;4923120;29;20039;-84
2021/06/26 11:58:35;;;;;;;7.32;3.70;;;36.70;89.00;;;;;;4922743;29;20031;-83
2021/06/26 12:01:05;;;;;;;6.90;3.60;;;37.60;91.60;;;;;;4922213;29;20026;-85
2021/06/26 12:03:31;;;;;;;8.00;3.92;;;38.40;90.00;;;;;;4922748;29;20488;-84
2021/06/26 12:06:06;;;;;;;6.43;3.50;;;39.10;90.40;;;;;;4923688;29;20040;-82
2021/06/26 12:08:44;;;;;;;6.43;3.38;;;39.10;80.50;;;;;;4923010;29;20036;-82
2021/06/26 12:11:14;;;;;;;17.50;6.95;;;37.80;77.90;;;;;;4923032;29;20024;-82
2021/06/26 12:13:45;;;;;;;21.30;6.28;;;36.80;79.80;;;;;;4923856;29;20446;-83
2021/06/26 12:16:21;;;;;;;21.52;9.85;;;35.80;77.60;;;;;;4922971;29;20469;-83
2021/06/26 12:19:02;;;;;;;11.93;5.57;;;35.00;79.10;;;;;;4908129;29;20024;-83
2021/06/26 12:21:43;;;;;;;23.30;8.77;;;34.40;79.20;;;;;;4921717;29;20035;-83
2021/06/26 12:24:09;;;;;;;21.88;7.43;;;34.00;81.50;;;;;;4921081;29;20066;-83
2021/06/26 12:26:35;;;;;;;13.75;4.80;;;34.00;85.30;;;;;;4922739;29;20032;-83
2021/06/26 12:29:01;;;;;;;9.00;4.47;;;35.60;92.20;;;;;;4923008;29;20040;-84
2021/06/26 12:31:27;;;;;;;7.03;3.50;;;36.90;86.80;;;;;;4921999;29;20099;-83